sensor_id;sensor_type;location;lat;lon;timestamp;temperature;humidity
7518;DHT22;3800;48.922;9.444;2023-02-11T00:00:19;-2.80;99.90
7518;DHT22;3800;48.922;9.444;2023-02-11T00:02:46;-2.80;99.90
7518;DHT22;3800;48.922;9.444;2023-02-11T00:05:14;-2.80;99.90
7518;DHT22;3800;48.922;9.444;2023-02-11T00:07:41;-2.90;99.90
7518;DHT22;3800;48.922;9.444;2023-02-11T00:10:09;-2.90;99.90
7518;DHT22;3800;48.922;9.444;2023-02-11T00:12:37;-2.90;99.90
7518;DHT22;3800;48.922;9.444;2023-02-11T00:15:06;-2.80;99.90
7518;DHT22;3800;48.922;9.444;2023-02-11T00:17:32;-2.80;99.90
7518;DHT22;3800;48.922;9.444;2023-02-11T00:20:00;-2.80;99.90
7518;DHT22;3800;48.922;9.444;2023-02-11T00:22:28;-2.80;99.90
7518;DHT22;3800;48.922;9.444;2023-02-11T00:24:55;-2.80;99.90
7518;DHT22;3800;48.922;9.444;2023-02-11T00:27:23;-2.80;99.90
7518;DHT22;3800;48.922;9.444;2023-02-11T00:29:51;-2.90;99.90
7518;DHT22;3800;48.922;9.444;2023-02-11T00:32:18;-2.90;99.90
7518;DHT22;3800;48.922;9.444;2023-02-11T00:34:46;-2.90;99.90
7518;DHT22;3800;48.922;9.444;2023-02-11T00:37:14;-2.90;99.90
7518;DHT22;3800;48.922;9.444;2023-02-11T00:39:41;-2.90;99.90
7518;DHT22;3800;48.922;9.444;2023-02-11T00:42:10;-2.80;99.90
7518;DHT22;3800;48.922;9.444;2023-02-11T00:44:36;-2.80;99.90
7518;DHT22;3800;48.922;9.444;2023-02-11T00:47:04;-2.80;99.90
7518;DHT22;3800;48.922;9.444;2023-02-11T00:49:32;-2.80;99.90
7518;DHT22;3800;48.922;9.444;2023-02-11T00:51:59;-2.70;99.90
7518;DHT22;3800;48.922;9.444;2023-02-11T00:54:27;-2.70;99.90
7518;DHT22;3800;48.922;9.444;2023-02-11T00:56:55;-2.80;99.90
7518;DHT22;3800;48.922;9.444;2023-02-11T00:59:22;-2.80;99.90
7518;DHT22;3800;48.922;9.444;2023-02-11T01:01:50;-2.80;99.90
7518;DHT22;3800;48.922;9.444;2023-02-11T01:04:18;-2.80;99.90
7518;DHT22;3800;48.922;9.444;2023-02-11T01:06:45;-2.80;99.90
7518;DHT22;3800;48.922;9.444;2023-02-11T01:09:13;-2.80;99.90
7518;DHT22;3800;48.922;9.444;2023-02-11T01:11:41;-2.80;99.90
7518;DHT22;3800;48.922;9.444;2023-02-11T01:14:08;-2.90;99.90
7518;DHT22;3800;48.922;9.444;2023-02-11T01:16:37;-3.00;99.90
7518;DHT22;3800;48.922;9.444;2023-02-11T01:19:04;-3.00;99.90
7518;DHT22;3800;48.922;9.444;2023-02-11T01:21:32;-3.00;99.90
7518;DHT22;3800;48.922;9.444;2023-02-11T01:23:59;-3.00;99.90
7518;DHT22;3800;48.922;9.444;2023-02-11T01:26:27;-3.00;99.90
7518;DHT22;3800;48.922;9.444;2023-02-11T01:28:56;-3.00;99.90
7518;DHT22;3800;48.922;9.444;2023-02-11T01:31:24;-3.00;99.90
7518;DHT22;3800;48.922;9.444;2023-02-11T01:33:51;-3.00;99.90
7518;DHT22;3800;48.922;9.444;2023-02-11T01:36:19;-3.00;99.90
7518;DHT22;3800;48.922;9.444;2023-02-11T01:38:47;-3.00;99.90
7518;DHT22;3800;48.922;9.444;2023-02-11T01:41:15;-3.00;99.90
7518;DHT22;3800;48.922;9.444;2023-02-11T01:43:44;-3.00;99.90
7518;DHT22;3800;48.922;9.444;2023-02-11T01:48:52;-3.00;99.90
7518;DHT22;3800;48.922;9.444;2023-02-11T01:51:23;-3.00;99.90
7518;DHT22;3800;48.922;9.444;2023-02-11T01:53:49;-3.00;99.90
7518;DHT22;3800;48.922;9.444;2023-02-11T01:56:22;-3.00;99.90
7518;DHT22;3800;48.922;9.444;2023-02-11T01:58:57;-3.00;99.90
7518;DHT22;3800;48.922;9.444;2023-02-11T02:01:23;-3.00;99.90
7518;DHT22;3800;48.922;9.444;2023-02-11T02:03:51;-3.00;99.90
7518;DHT22;3800;48.922;9.444;2023-02-11T02:06:21;-2.90;99.90
7518;DHT22;3800;48.922;9.444;2023-02-11T02:09:21;-2.90;99.90
7518;DHT22;3800;48.922;9.444;2023-02-11T02:11:29;-2.90;99.90
7518;DHT22;3800;48.922;9.444;2023-02-11T02:13:56;-2.90;99.90
7518;DHT22;3800;48.922;9.444;2023-02-11T02:16:28;-2.80;99.90
7518;DHT22;3800;48.922;9.444;2023-02-11T02:19:04;-2.90;99.90
7518;DHT22;3800;48.922;9.444;2023-02-11T02:24:30;-2.70;99.90
7518;DHT22;3800;48.922;9.444;2023-02-11T02:27:23;-2.70;99.90
7518;DHT22;3800;48.922;9.444;2023-02-11T02:29:56;-2.70;99.90
7518;DHT22;3800;48.922;9.444;2023-02-11T02:32:28;-2.70;99.90
7518;DHT22;3800;48.922;9.444;2023-02-11T02:35:33;-2.70;99.90
7518;DHT22;3800;48.922;9.444;2023-02-11T02:37:46;-2.70;99.90
7518;DHT22;3800;48.922;9.444;2023-02-11T02:40:10;-2.70;99.90
7518;DHT22;3800;48.922;9.444;2023-02-11T02:42:36;-2.60;99.90
7518;DHT22;3800;48.922;9.444;2023-02-11T02:45:05;-2.60;99.90
7518;DHT22;3800;48.922;9.444;2023-02-11T02:47:32;-2.50;99.90
7518;DHT22;3800;48.922;9.444;2023-02-11T02:50:00;-2.50;99.90
7518;DHT22;3800;48.922;9.444;2023-02-11T02:52:35;-2.50;99.90
7518;DHT22;3800;48.922;9.444;2023-02-11T02:55:05;-2.50;99.90
7518;DHT22;3800;48.922;9.444;2023-02-11T02:57:38;-2.40;99.90
7518;DHT22;3800;48.922;9.444;2023-02-11T03:00:17;-2.40;99.90
7518;DHT22;3800;48.922;9.444;2023-02-11T03:03:08;-2.40;99.90
7518;DHT22;3800;48.922;9.444;2023-02-11T03:05:52;-2.40;99.90
7518;DHT22;3800;48.922;9.444;2023-02-11T03:08:37;-2.40;99.90
7518;DHT22;3800;48.922;9.444;2023-02-11T03:11:03;-2.40;99.90
7518;DHT22;3800;48.922;9.444;2023-02-11T03:13:31;-2.40;99.90
7518;DHT22;3800;48.922;9.444;2023-02-11T03:15:59;-2.40;99.90
7518;DHT22;3800;48.922;9.444;2023-02-11T03:18:27;-2.30;99.90
7518;DHT22;3800;48.922;9.444;2023-02-11T03:20:54;-2.30;99.90
7518;DHT22;3800;48.922;9.444;2023-02-11T03:23:30;-2.30;99.90
7518;DHT22;3800;48.922;9.444;2023-02-11T03:26:17;-2.30;99.90
7518;DHT22;3800;48.922;9.444;2023-02-11T03:28:45;-2.30;99.90
7518;DHT22;3800;48.922;9.444;2023-02-11T03:31:16;-2.30;99.90
7518;DHT22;3800;48.922;9.444;2023-02-11T03:33:56;-2.30;99.90
7518;DHT22;3800;48.922;9.444;2023-02-11T03:36:26;-2.30;99.90
7518;DHT22;3800;48.922;9.444;2023-02-11T03:38:52;-2.30;99.90
7518;DHT22;3800;48.922;9.444;2023-02-11T03:41:19;-2.40;99.90
7518;DHT22;3800;48.922;9.444;2023-02-11T03:43:49;-2.40;99.90
7518;DHT22;3800;48.922;9.444;2023-02-11T03:46:17;-2.40;99.90
7518;DHT22;3800;48.922;9.444;2023-02-11T03:48:46;-2.40;99.90
7518;DHT22;3800;48.922;9.444;2023-02-11T03:51:11;-2.30;99.90
7518;DHT22;3800;48.922;9.444;2023-02-11T03:53:40;-2.30;99.90
7518;DHT22;3800;48.922;9.444;2023-02-11T03:56:09;-2.30;99.90
7518;DHT22;3800;48.922;9.444;2023-02-11T03:58:35;-2.30;99.90
7518;DHT22;3800;48.922;9.444;2023-02-11T04:01:05;-2.30;99.90
7518;DHT22;3800;48.922;9.444;2023-02-11T04:03:31;-2.30;99.90
7518;DHT22;3800;48.922;9.444;2023-02-11T04:05:59;-2.20;99.90
7518;DHT22;3800;48.922;9.444;2023-02-11T04:08:26;-2.20;99.90
7518;DHT22;3800;48.922;9.444;2023-02-11T04:10:54;-2.20;99.90
7518;DHT22;3800;48.922;9.444;2023-02-11T04:13:22;-2.20;99.90
7518;DHT22;3800;48.922;9.444;2023-02-11T04:15:51;-2.10;99.90
7518;DHT22;3800;48.922;9.444;2023-02-11T04:18:18;-2.20;99.90
7518;DHT22;3800;48.922;9.444;2023-02-11T04:20:46;-2.10;99.90
7518;DHT22;3800;48.922;9.444;2023-02-11T04:23:13;-2.10;99.90
7518;DHT22;3800;48.922;9.444;2023-02-11T04:25:41;-2.10;99.90
7518;DHT22;3800;48.922;9.444;2023-02-11T04:28:09;-2.00;99.90
7518;DHT22;3800;48.922;9.444;2023-02-11T04:30:37;-2.10;99.90
7518;DHT22;3800;48.922;9.444;2023-02-11T04:33:05;-2.00;99.90
7518;DHT22;3800;48.922;9.444;2023-02-11T04:35:33;-2.00;99.90
7518;DHT22;3800;48.922;9.444;2023-02-11T04:38:01;-2.00;99.90
7518;DHT22;3800;48.922;9.444;2023-02-11T04:40:28;-2.00;99.90
7518;DHT22;3800;48.922;9.444;2023-02-11T04:42:56;-2.00;99.90
7518;DHT22;3800;48.922;9.444;2023-02-11T04:45:24;-2.00;99.90
7518;DHT22;3800;48.922;9.444;2023-02-11T04:47:51;-2.00;99.90
7518;DHT22;3800;48.922;9.444;2023-02-11T04:50:19;-1.90;99.90
7518;DHT22;3800;48.922;9.444;2023-02-11T04:52:47;-1.90;99.90
7518;DHT22;3800;48.922;9.444;2023-02-11T04:55:15;-1.90;99.90
7518;DHT22;3800;48.922;9.444;2023-02-11T04:57:42;-1.90;99.90
7518;DHT22;3800;48.922;9.444;2023-02-11T05:00:10;-1.90;99.90
7518;DHT22;3800;48.922;9.444;2023-02-11T05:02:38;-1.80;99.90
7518;DHT22;3800;48.922;9.444;2023-02-11T05:05:05;-1.80;99.90
7518;DHT22;3800;48.922;9.444;2023-02-11T05:07:33;-1.80;99.90
7518;DHT22;3800;48.922;9.444;2023-02-11T05:10:01;-1.80;99.90
7518;DHT22;3800;48.922;9.444;2023-02-11T05:12:29;-1.80;99.90
7518;DHT22;3800;48.922;9.444;2023-02-11T05:14:56;-1.80;99.90
7518;DHT22;3800;48.922;9.444;2023-02-11T05:17:24;-1.70;99.90
7518;DHT22;3800;48.922;9.444;2023-02-11T05:19:52;-1.70;99.90
7518;DHT22;3800;48.922;9.444;2023-02-11T05:22:20;-1.70;99.90
7518;DHT22;3800;48.922;9.444;2023-02-11T05:24:48;-1.70;99.90
7518;DHT22;3800;48.922;9.444;2023-02-11T05:27:15;-1.70;99.90
7518;DHT22;3800;48.922;9.444;2023-02-11T05:29:43;-1.70;99.90
7518;DHT22;3800;48.922;9.444;2023-02-11T05:32:11;-1.70;99.90
7518;DHT22;3800;48.922;9.444;2023-02-11T05:34:38;-1.70;99.90
7518;DHT22;3800;48.922;9.444;2023-02-11T05:37:06;-1.70;99.90
7518;DHT22;3800;48.922;9.444;2023-02-11T05:39:34;-1.70;99.90
7518;DHT22;3800;48.922;9.444;2023-02-11T05:42:01;-1.70;99.90
7518;DHT22;3800;48.922;9.444;2023-02-11T05:44:30;-1.60;99.90
7518;DHT22;3800;48.922;9.444;2023-02-11T05:46:57;-1.60;99.90
7518;DHT22;3800;48.922;9.444;2023-02-11T05:49:25;-1.60;99.90
7518;DHT22;3800;48.922;9.444;2023-02-11T05:51:53;-1.50;99.90
7518;DHT22;3800;48.922;9.444;2023-02-11T05:54:20;-1.50;99.90
7518;DHT22;3800;48.922;9.444;2023-02-11T05:56:48;-1.50;99.90
7518;DHT22;3800;48.922;9.444;2023-02-11T05:59:16;-1.60;99.90
7518;DHT22;3800;48.922;9.444;2023-02-11T06:01:43;-1.60;99.90
7518;DHT22;3800;48.922;9.444;2023-02-11T06:04:11;-1.60;99.90
7518;DHT22;3800;48.922;9.444;2023-02-11T06:06:39;-1.60;99.90
7518;DHT22;3800;48.922;9.444;2023-02-11T06:09:07;-1.60;99.90
7518;DHT22;3800;48.922;9.444;2023-02-11T06:11:34;-1.60;99.90
7518;DHT22;3800;48.922;9.444;2023-02-11T06:14:01;-1.60;99.90
7518;DHT22;3800;48.922;9.444;2023-02-11T06:16:29;-1.50;99.90
7518;DHT22;3800;48.922;9.444;2023-02-11T06:18:57;-1.50;99.90
7518;DHT22;3800;48.922;9.444;2023-02-11T06:21:24;-1.50;99.90
7518;DHT22;3800;48.922;9.444;2023-02-11T06:23:52;-1.50;99.90
7518;DHT22;3800;48.922;9.444;2023-02-11T06:26:20;-1.50;99.90
7518;DHT22;3800;48.922;9.444;2023-02-11T06:28:48;-1.40;99.90
7518;DHT22;3800;48.922;9.444;2023-02-11T06:31:15;-1.40;99.90
7518;DHT22;3800;48.922;9.444;2023-02-11T06:33:43;-1.40;99.90
7518;DHT22;3800;48.922;9.444;2023-02-11T06:36:14;-1.40;99.90
7518;DHT22;3800;48.922;9.444;2023-02-11T06:38:42;-1.30;99.90
7518;DHT22;3800;48.922;9.444;2023-02-11T06:41:10;-1.30;99.90
7518;DHT22;3800;48.922;9.444;2023-02-11T06:43:37;-1.30;99.90
7518;DHT22;3800;48.922;9.444;2023-02-11T06:46:06;-1.30;99.90
7518;DHT22;3800;48.922;9.444;2023-02-11T06:48:34;-1.30;99.90
7518;DHT22;3800;48.922;9.444;2023-02-11T06:51:06;-1.30;99.90
7518;DHT22;3800;48.922;9.444;2023-02-11T06:53:40;-1.30;99.90
7518;DHT22;3800;48.922;9.444;2023-02-11T06:56:09;-1.30;99.90
7518;DHT22;3800;48.922;9.444;2023-02-11T06:58:36;-1.30;99.90
7518;DHT22;3800;48.922;9.444;2023-02-11T07:01:05;-1.30;99.90
7518;DHT22;3800;48.922;9.444;2023-02-11T07:03:34;-1.20;99.90
7518;DHT22;3800;48.922;9.444;2023-02-11T07:06:03;-1.30;99.90
7518;DHT22;3800;48.922;9.444;2023-02-11T07:08:32;-1.20;99.90
7518;DHT22;3800;48.922;9.444;2023-02-11T07:10:59;-1.20;99.90
7518;DHT22;3800;48.922;9.444;2023-02-11T07:13:28;-1.20;99.90
7518;DHT22;3800;48.922;9.444;2023-02-11T07:15:56;-1.20;99.90
7518;DHT22;3800;48.922;9.444;2023-02-11T07:18:24;-1.10;99.90
7518;DHT22;3800;48.922;9.444;2023-02-11T07:20:52;-1.10;99.90
7518;DHT22;3800;48.922;9.444;2023-02-11T07:23:20;-1.10;99.90
7518;DHT22;3800;48.922;9.444;2023-02-11T07:25:48;-1.10;99.90
7518;DHT22;3800;48.922;9.444;2023-02-11T07:28:15;-1.10;99.90
7518;DHT22;3800;48.922;9.444;2023-02-11T07:30:44;-1.10;99.90
7518;DHT22;3800;48.922;9.444;2023-02-11T07:33:12;-1.10;99.90
7518;DHT22;3800;48.922;9.444;2023-02-11T07:35:41;-1.10;99.90
7518;DHT22;3800;48.922;9.444;2023-02-11T07:38:09;-1.10;99.90
7518;DHT22;3800;48.922;9.444;2023-02-11T07:40:38;-1.10;99.90
7518;DHT22;3800;48.922;9.444;2023-02-11T07:43:06;-1.00;99.90
7518;DHT22;3800;48.922;9.444;2023-02-11T07:45:33;-1.00;99.90
7518;DHT22;3800;48.922;9.444;2023-02-11T07:48:01;-1.00;99.90
7518;DHT22;3800;48.922;9.444;2023-02-11T07:50:29;-0.90;99.90
7518;DHT22;3800;48.922;9.444;2023-02-11T07:52:57;-0.90;99.90
7518;DHT22;3800;48.922;9.444;2023-02-11T07:55:25;-0.80;99.90
7518;DHT22;3800;48.922;9.444;2023-02-11T07:57:53;-0.70;99.90
7518;DHT22;3800;48.922;9.444;2023-02-11T08:00:21;-0.60;99.90
7518;DHT22;3800;48.922;9.444;2023-02-11T08:02:49;-0.60;99.90
7518;DHT22;3800;48.922;9.444;2023-02-11T08:05:17;-0.50;99.90
7518;DHT22;3800;48.922;9.444;2023-02-11T08:07:45;-0.30;99.90
7518;DHT22;3800;48.922;9.444;2023-02-11T08:10:13;-0.30;99.90
7518;DHT22;3800;48.922;9.444;2023-02-11T08:12:41;-0.30;99.90
7518;DHT22;3800;48.922;9.444;2023-02-11T08:15:11;-0.20;99.90
7518;DHT22;3800;48.922;9.444;2023-02-11T08:17:38;-0.20;99.90
7518;DHT22;3800;48.922;9.444;2023-02-11T08:20:06;-0.20;99.90
7518;DHT22;3800;48.922;9.444;2023-02-11T08:22:37;-0.10;99.90
7518;DHT22;3800;48.922;9.444;2023-02-11T08:25:06;-0.10;99.90
7518;DHT22;3800;48.922;9.444;2023-02-11T08:27:34;-0.10;99.90
7518;DHT22;3800;48.922;9.444;2023-02-11T08:30:02;-0.10;99.90
7518;DHT22;3800;48.922;9.444;2023-02-11T08:32:30;-0.10;99.90
7518;DHT22;3800;48.922;9.444;2023-02-11T08:34:58;0.10;99.90
7518;DHT22;3800;48.922;9.444;2023-02-11T08:37:26;0.10;99.90
7518;DHT22;3800;48.922;9.444;2023-02-11T08:39:54;0.20;99.90
7518;DHT22;3800;48.922;9.444;2023-02-11T08:42:22;0.30;99.90
7518;DHT22;3800;48.922;9.444;2023-02-11T08:44:50;0.50;99.90
7518;DHT22;3800;48.922;9.444;2023-02-11T08:47:19;0.60;99.90
7518;DHT22;3800;48.922;9.444;2023-02-11T08:49:46;0.70;99.90
7518;DHT22;3800;48.922;9.444;2023-02-11T08:52:15;0.70;99.90
7518;DHT22;3800;48.922;9.444;2023-02-11T08:54:42;0.70;99.90
7518;DHT22;3800;48.922;9.444;2023-02-11T08:57:11;0.70;99.90
7518;DHT22;3800;48.922;9.444;2023-02-11T08:59:39;0.70;99.90
7518;DHT22;3800;48.922;9.444;2023-02-11T09:02:09;0.80;99.90
7518;DHT22;3800;48.922;9.444;2023-02-11T09:04:34;0.80;99.90
7518;DHT22;3800;48.922;9.444;2023-02-11T09:07:02;0.90;99.90
7518;DHT22;3800;48.922;9.444;2023-02-11T09:09:31;1.10;99.90
7518;DHT22;3800;48.922;9.444;2023-02-11T09:11:59;1.10;99.90
7518;DHT22;3800;48.922;9.444;2023-02-11T09:14:27;1.30;99.90
7518;DHT22;3800;48.922;9.444;2023-02-11T09:16:54;1.40;99.90
7518;DHT22;3800;48.922;9.444;2023-02-11T09:19:26;1.40;99.90
7518;DHT22;3800;48.922;9.444;2023-02-11T09:21:54;1.60;99.90
7518;DHT22;3800;48.922;9.444;2023-02-11T09:24:22;1.60;99.90
7518;DHT22;3800;48.922;9.444;2023-02-11T09:26:49;1.70;99.90
7518;DHT22;3800;48.922;9.444;2023-02-11T09:29:18;2.00;99.90
7518;DHT22;3800;48.922;9.444;2023-02-11T09:31:46;2.00;99.90
7518;DHT22;3800;48.922;9.444;2023-02-11T09:34:13;2.10;99.90
7518;DHT22;3800;48.922;9.444;2023-02-11T09:36:42;2.20;99.90
7518;DHT22;3800;48.922;9.444;2023-02-11T09:39:12;2.30;99.90
7518;DHT22;3800;48.922;9.444;2023-02-11T09:41:42;2.30;99.90
7518;DHT22;3800;48.922;9.444;2023-02-11T09:44:16;2.40;99.90
7518;DHT22;3800;48.922;9.444;2023-02-11T09:46:39;2.40;99.90
7518;DHT22;3800;48.922;9.444;2023-02-11T09:49:06;2.50;99.90
7518;DHT22;3800;48.922;9.444;2023-02-11T09:51:39;2.50;99.90
7518;DHT22;3800;48.922;9.444;2023-02-11T09:54:22;2.50;99.90
7518;DHT22;3800;48.922;9.444;2023-02-11T09:56:48;2.50;99.90
7518;DHT22;3800;48.922;9.444;2023-02-11T09:59:16;2.60;99.90
7518;DHT22;3800;48.922;9.444;2023-02-11T10:01:52;2.70;99.90
7518;DHT22;3800;48.922;9.444;2023-02-11T10:07:24;2.80;99.90
7518;DHT22;3800;48.922;9.444;2023-02-11T10:09:56;2.80;99.90
7518;DHT22;3800;48.922;9.444;2023-02-11T10:12:36;3.00;99.90
7518;DHT22;3800;48.922;9.444;2023-02-11T10:16:20;3.20;99.90
7518;DHT22;3800;48.922;9.444;2023-02-11T10:20:37;3.60;99.90
7518;DHT22;3800;48.922;9.444;2023-02-11T10:23:09;3.70;99.90
7518;DHT22;3800;48.922;9.444;2023-02-11T10:25:39;3.80;99.90
7518;DHT22;3800;48.922;9.444;2023-02-11T10:28:14;4.00;99.90
7518;DHT22;3800;48.922;9.444;2023-02-11T10:30:43;4.10;99.90
7518;DHT22;3800;48.922;9.444;2023-02-11T10:33:14;4.20;99.90
7518;DHT22;3800;48.922;9.444;2023-02-11T10:35:41;4.30;99.90
7518;DHT22;3800;48.922;9.444;2023-02-11T10:38:09;4.30;99.90
7518;DHT22;3800;48.922;9.444;2023-02-11T10:40:37;4.30;99.90
7518;DHT22;3800;48.922;9.444;2023-02-11T10:43:05;4.40;99.90
7518;DHT22;3800;48.922;9.444;2023-02-11T10:45:32;4.40;99.90
7518;DHT22;3800;48.922;9.444;2023-02-11T10:48:01;4.50;99.90
7518;DHT22;3800;48.922;9.444;2023-02-11T10:50:29;4.50;99.90
7518;DHT22;3800;48.922;9.444;2023-02-11T10:53:10;4.60;99.90
7518;DHT22;3800;48.922;9.444;2023-02-11T10:55:32;4.70;99.90
7518;DHT22;3800;48.922;9.444;2023-02-11T10:58:00;4.70;99.90
7518;DHT22;3800;48.922;9.444;2023-02-11T11:00:35;4.80;99.90
7518;DHT22;3800;48.922;9.444;2023-02-11T11:03:04;4.90;99.90
7518;DHT22;3800;48.922;9.444;2023-02-11T11:05:35;4.90;99.90
7518;DHT22;3800;48.922;9.444;2023-02-11T11:08:04;4.90;99.90
7518;DHT22;3800;48.922;9.444;2023-02-11T11:10:42;5.00;99.90
7518;DHT22;3800;48.922;9.444;2023-02-11T11:13:23;5.00;99.90
7518;DHT22;3800;48.922;9.444;2023-02-11T11:16:14;5.10;99.90
7518;DHT22;3800;48.922;9.444;2023-02-11T11:18:38;5.20;99.90
7518;DHT22;3800;48.922;9.444;2023-02-11T11:21:12;5.20;99.90
7518;DHT22;3800;48.922;9.444;2023-02-11T11:23:38;5.30;99.90
7518;DHT22;3800;48.922;9.444;2023-02-11T11:26:10;5.40;99.90
7518;DHT22;3800;48.922;9.444;2023-02-11T11:28:39;5.50;99.90
7518;DHT22;3800;48.922;9.444;2023-02-11T11:31:13;5.50;99.90
7518;DHT22;3800;48.922;9.444;2023-02-11T11:33:41;5.60;99.90
7518;DHT22;3800;48.922;9.444;2023-02-11T11:36:10;5.70;99.90
7518;DHT22;3800;48.922;9.444;2023-02-11T11:38:44;6.00;99.90
7518;DHT22;3800;48.922;9.444;2023-02-11T11:41:17;6.00;99.90
7518;DHT22;3800;48.922;9.444;2023-02-11T11:43:53;6.30;99.90
7518;DHT22;3800;48.922;9.444;2023-02-11T11:46:22;6.40;99.90
7518;DHT22;3800;48.922;9.444;2023-02-11T11:48:50;6.50;99.90
7518;DHT22;3800;48.922;9.444;2023-02-11T11:51:20;6.50;99.90
7518;DHT22;3800;48.922;9.444;2023-02-11T11:53:52;6.70;99.90
7518;DHT22;3800;48.922;9.444;2023-02-11T11:56:23;6.90;99.90
7518;DHT22;3800;48.922;9.444;2023-02-11T11:58:49;7.00;99.90
7518;DHT22;3800;48.922;9.444;2023-02-11T12:01:29;7.10;99.90
7518;DHT22;3800;48.922;9.444;2023-02-11T12:06:39;7.20;99.90
7518;DHT22;3800;48.922;9.444;2023-02-11T12:10:17;7.30;99.90
7518;DHT22;3800;48.922;9.444;2023-02-11T12:12:12;7.30;99.90
7518;DHT22;3800;48.922;9.444;2023-02-11T12:14:58;7.50;99.90
7518;DHT22;3800;48.922;9.444;2023-02-11T12:17:45;7.50;99.90
7518;DHT22;3800;48.922;9.444;2023-02-11T12:20:18;7.50;99.90
7518;DHT22;3800;48.922;9.444;2023-02-11T12:23:23;7.50;99.90
7518;DHT22;3800;48.922;9.444;2023-02-11T12:25:55;7.50;99.90
7518;DHT22;3800;48.922;9.444;2023-02-11T12:31:30;7.50;99.90
7518;DHT22;3800;48.922;9.444;2023-02-11T12:39:49;7.60;99.90
7518;DHT22;3800;48.922;9.444;2023-02-11T12:42:35;7.60;99.90
7518;DHT22;3800;48.922;9.444;2023-02-11T12:45:42;7.60;99.90
7518;DHT22;3800;48.922;9.444;2023-02-11T12:47:59;7.70;99.90
7518;DHT22;3800;48.922;9.444;2023-02-11T12:53:41;7.70;99.90
7518;DHT22;3800;48.922;9.444;2023-02-11T12:56:26;7.60;99.90
7518;DHT22;3800;48.922;9.444;2023-02-11T12:58:53;7.60;99.90
7518;DHT22;3800;48.922;9.444;2023-02-11T13:01:34;7.60;99.90
7518;DHT22;3800;48.922;9.444;2023-02-11T13:04:10;7.60;99.90
7518;DHT22;3800;48.922;9.444;2023-02-11T13:06:38;7.60;99.90
7518;DHT22;3800;48.922;9.444;2023-02-11T13:09:04;7.60;99.90
7518;DHT22;3800;48.922;9.444;2023-02-11T13:11:34;7.60;99.90
7518;DHT22;3800;48.922;9.444;2023-02-11T13:14:05;7.60;99.90
7518;DHT22;3800;48.922;9.444;2023-02-11T13:16:41;7.60;99.90
7518;DHT22;3800;48.922;9.444;2023-02-11T13:19:18;7.60;99.90
7518;DHT22;3800;48.922;9.444;2023-02-11T13:24:41;7.50;99.90
7518;DHT22;3800;48.922;9.444;2023-02-11T13:30:02;7.60;99.90
7518;DHT22;3800;48.922;9.444;2023-02-11T13:32:21;7.70;99.90
7518;DHT22;3800;48.922;9.444;2023-02-11T13:34:55;7.80;99.90
7518;DHT22;3800;48.922;9.444;2023-02-11T13:37:23;7.80;99.90
7518;DHT22;3800;48.922;9.444;2023-02-11T13:39:58;7.80;99.90
7518;DHT22;3800;48.922;9.444;2023-02-11T13:42:25;7.80;99.90
7518;DHT22;3800;48.922;9.444;2023-02-11T13:44:53;7.80;99.90
7518;DHT22;3800;48.922;9.444;2023-02-11T13:47:33;8.00;99.90
7518;DHT22;3800;48.922;9.444;2023-02-11T13:50:00;8.00;99.90
7518;DHT22;3800;48.922;9.444;2023-02-11T13:52:30;8.10;99.90
7518;DHT22;3800;48.922;9.444;2023-02-11T13:55:06;8.10;99.90
7518;DHT22;3800;48.922;9.444;2023-02-11T13:57:34;8.10;99.90
7518;DHT22;3800;48.922;9.444;2023-02-11T14:02:44;8.20;99.90
7518;DHT22;3800;48.922;9.444;2023-02-11T14:05:30;8.30;99.90
7518;DHT22;3800;48.922;9.444;2023-02-11T14:10:59;8.40;99.90
7518;DHT22;3800;48.922;9.444;2023-02-11T14:18:57;8.50;99.90
7518;DHT22;3800;48.922;9.444;2023-02-11T14:21:40;8.50;99.90
7518;DHT22;3800;48.922;9.444;2023-02-11T14:24:44;8.60;99.90
7518;DHT22;3800;48.922;9.444;2023-02-11T14:27:13;8.60;99.90
7518;DHT22;3800;48.922;9.444;2023-02-11T14:29:49;8.60;99.90
7518;DHT22;3800;48.922;9.444;2023-02-11T14:32:38;8.60;99.90
7518;DHT22;3800;48.922;9.444;2023-02-11T14:35:15;8.60;99.90
7518;DHT22;3800;48.922;9.444;2023-02-11T14:37:47;8.60;99.90
7518;DHT22;3800;48.922;9.444;2023-02-11T14:40:16;8.60;99.90
7518;DHT22;3800;48.922;9.444;2023-02-11T14:42:42;8.60;99.90
7518;DHT22;3800;48.922;9.444;2023-02-11T14:45:13;8.50;99.90
7518;DHT22;3800;48.922;9.444;2023-02-11T14:47:42;8.50;99.90
7518;DHT22;3800;48.922;9.444;2023-02-11T14:50:23;8.50;99.90
7518;DHT22;3800;48.922;9.444;2023-02-11T14:52:41;8.50;99.90
7518;DHT22;3800;48.922;9.444;2023-02-11T14:55:30;8.50;99.90
7518;DHT22;3800;48.922;9.444;2023-02-11T14:58:04;8.50;99.90
7518;DHT22;3800;48.922;9.444;2023-02-11T15:00:31;8.50;99.90
7518;DHT22;3800;48.922;9.444;2023-02-11T15:02:59;8.40;99.90
7518;DHT22;3800;48.922;9.444;2023-02-11T15:05:28;8.40;99.90
7518;DHT22;3800;48.922;9.444;2023-02-11T15:07:58;8.40;99.90
7518;DHT22;3800;48.922;9.444;2023-02-11T15:12:59;8.40;99.90
7518;DHT22;3800;48.922;9.444;2023-02-11T15:15:28;8.30;99.90
7518;DHT22;3800;48.922;9.444;2023-02-11T15:17:57;8.30;99.90
7518;DHT22;3800;48.922;9.444;2023-02-11T15:20:25;8.20;99.90
7518;DHT22;3800;48.922;9.444;2023-02-11T15:22:56;8.10;99.90
7518;DHT22;3800;48.922;9.444;2023-02-11T15:25:22;8.00;99.90
7518;DHT22;3800;48.922;9.444;2023-02-11T15:27:52;8.00;99.90
7518;DHT22;3800;48.922;9.444;2023-02-11T15:30:25;7.90;99.90
7518;DHT22;3800;48.922;9.444;2023-02-11T15:32:52;7.80;99.90
7518;DHT22;3800;48.922;9.444;2023-02-11T15:35:19;7.80;99.90
7518;DHT22;3800;48.922;9.444;2023-02-11T15:37:47;7.70;99.90
7518;DHT22;3800;48.922;9.444;2023-02-11T15:40:17;7.70;99.90
7518;DHT22;3800;48.922;9.444;2023-02-11T15:43:01;7.60;99.90
7518;DHT22;3800;48.922;9.444;2023-02-11T15:45:34;7.60;99.90
7518;DHT22;3800;48.922;9.444;2023-02-11T15:48:12;7.50;99.90
7518;DHT22;3800;48.922;9.444;2023-02-11T15:50:39;7.50;99.90
7518;DHT22;3800;48.922;9.444;2023-02-11T15:53:32;7.40;99.90
7518;DHT22;3800;48.922;9.444;2023-02-11T15:56:03;7.30;99.90
7518;DHT22;3800;48.922;9.444;2023-02-11T15:58:34;7.20;99.90
7518;DHT22;3800;48.922;9.444;2023-02-11T16:01:00;7.20;99.90
7518;DHT22;3800;48.922;9.444;2023-02-11T16:03:28;7.20;99.90
7518;DHT22;3800;48.922;9.444;2023-02-11T16:05:55;7.10;99.90
7518;DHT22;3800;48.922;9.444;2023-02-11T16:08:24;7.10;99.90
7518;DHT22;3800;48.922;9.444;2023-02-11T16:10:54;7.00;99.90
7518;DHT22;3800;48.922;9.444;2023-02-11T16:13:22;7.00;99.90
7518;DHT22;3800;48.922;9.444;2023-02-11T16:15:53;6.90;99.90
7518;DHT22;3800;48.922;9.444;2023-02-11T16:18:27;6.90;99.90
7518;DHT22;3800;48.922;9.444;2023-02-11T16:20:54;6.90;99.90
7518;DHT22;3800;48.922;9.444;2023-02-11T16:23:26;6.80;99.90
7518;DHT22;3800;48.922;9.444;2023-02-11T16:25:55;6.80;99.90
7518;DHT22;3800;48.922;9.444;2023-02-11T16:28:22;6.80;99.90
7518;DHT22;3800;48.922;9.444;2023-02-11T16:30:52;6.70;99.90
7518;DHT22;3800;48.922;9.444;2023-02-11T16:33:19;6.70;99.90
7518;DHT22;3800;48.922;9.444;2023-02-11T16:35:46;6.70;99.90
7518;DHT22;3800;48.922;9.444;2023-02-11T16:38:15;6.70;99.90
7518;DHT22;3800;48.922;9.444;2023-02-11T16:40:43;6.60;99.90
7518;DHT22;3800;48.922;9.444;2023-02-11T16:43:10;6.60;99.90
7518;DHT22;3800;48.922;9.444;2023-02-11T16:45:38;6.60;99.90
7518;DHT22;3800;48.922;9.444;2023-02-11T16:48:07;6.50;99.90
7518;DHT22;3800;48.922;9.444;2023-02-11T16:50:34;6.50;99.90
7518;DHT22;3800;48.922;9.444;2023-02-11T16:53:01;6.50;99.90
7518;DHT22;3800;48.922;9.444;2023-02-11T16:55:29;6.40;99.90
7518;DHT22;3800;48.922;9.444;2023-02-11T16:57:57;6.40;99.90
7518;DHT22;3800;48.922;9.444;2023-02-11T17:00:25;6.40;99.90
7518;DHT22;3800;48.922;9.444;2023-02-11T17:02:52;6.40;99.90
7518;DHT22;3800;48.922;9.444;2023-02-11T17:05:22;6.40;99.90
7518;DHT22;3800;48.922;9.444;2023-02-11T17:07:50;6.40;99.90
7518;DHT22;3800;48.922;9.444;2023-02-11T17:10:18;6.40;99.90
7518;DHT22;3800;48.922;9.444;2023-02-11T17:12:46;6.40;99.90